Terminal Aerodrome Forecast
Issued by NWS Tulsa, OK

Home | Current Version | Previous Version | Text Only | Print | Product List | Glossary On
Versions: 1 2 3 4 5 6 7 8 9 10 11 12 13 14 15 16 17
870
FTUS44 KTSA 282328
TAFFSM
TAF
KFSM 282328Z 2900/2924 10012KT P6SM BKN040
     FM290600 08010KT P6SM OVC025
     FM291400 12012G18KT 6SM -TSRA BKN015CB
      TEMPO 2915/2919 VRB20G40KT 2SM TSRA BKN007CB
     FM292100 16015KT 6SM -SHRA BKN025=

USA.gov is the U.S. government's official web portal to all federal, state and local government web resources and services.